Terminal Aerodrome Forecast
Issued by NWS Twin Cities, MN

Home | Current Version | Previous Version | Graphics & Text | Print | Product List | Glossary On
Versions: 1 2 3 4 5 6 7 8 9 10 11 12 13 14
000
FTUS43 KMPX 192300
TAFEAU
TAF
KEAU 192329Z 2000/2024 16005KT P6SM OVC020
     FM200500 15004KT 6SM BR OVC013
     FM201000 15005KT 5SM BR OVC008
     FM202000 16005KT P6SM OVC015=

USA.gov is the U.S. government's official web portal to all federal, state and local government web resources and services.